Roanoke Rapids, North Carolina
Current Conditions -  °F | °C
As of 11:55 PM on Sunday 21 Dec 2014 (Local Time) from KIXA Reporting Station
Overcast Overcast  
Wind Chill: -1°   Ceiling: 4600
Heat Index:   Visibility: 10mi
Dew Point:   Wind: 6mph
Humidity: 87%   Direction: 30°NNE
Pressure: 30.26"   Gusts: NA
Location:  36.48°N, 77.65°W
Report Text: KIXA 220455Z AUTO 03005KT 10SM OVC046 02/00 A3026 RMK AO2
Loading
Personal Weather Stations






























Interactive Weather Map New forecast layout! Learn more

10-Day Weather Forecast

Advertisements
Track Severe Weather on mobile